sensor_id;sensor_type;location;lat;lon;timestamp;P1;durP1;ratioP1;P2;durP2;ratioP2
10311;SDS011;5201;48.776;9.128;2022-12-07T00:01:11;6.43;;;4.17;;
10311;SDS011;5201;48.776;9.128;2022-12-07T00:03:39;9.60;;;4.07;;
10311;SDS011;5201;48.776;9.128;2022-12-07T00:06:06;8.97;;;4.00;;
10311;SDS011;5201;48.776;9.128;2022-12-07T00:08:33;5.47;;;3.40;;
10311;SDS011;5201;48.776;9.128;2022-12-07T00:11:03;11.33;;;4.20;;
10311;SDS011;5201;48.776;9.128;2022-12-07T00:13:30;5.47;;;3.57;;
10311;SDS011;5201;48.776;9.128;2022-12-07T00:16:00;10.90;;;4.40;;
10311;SDS011;5201;48.776;9.128;2022-12-07T00:18:26;5.93;;;3.60;;
10311;SDS011;5201;48.776;9.128;2022-12-07T00:20:52;4.00;;;3.33;;
10311;SDS011;5201;48.776;9.128;2022-12-07T00:23:18;4.13;;;3.47;;
10311;SDS011;5201;48.776;9.128;2022-12-07T00:25:43;6.40;;;3.70;;
10311;SDS011;5201;48.776;9.128;2022-12-07T00:28:12;5.43;;;3.67;;
10311;SDS011;5201;48.776;9.128;2022-12-07T00:30:37;7.57;;;4.60;;
10311;SDS011;5201;48.776;9.128;2022-12-07T00:33:03;7.20;;;4.13;;
10311;SDS011;5201;48.776;9.128;2022-12-07T00:35:28;7.80;;;4.73;;
10311;SDS011;5201;48.776;9.128;2022-12-07T00:37:54;5.47;;;4.33;;
10311;SDS011;5201;48.776;9.128;2022-12-07T00:40:19;7.13;;;4.37;;
10311;SDS011;5201;48.776;9.128;2022-12-07T00:42:45;7.47;;;4.67;;
10311;SDS011;5201;48.776;9.128;2022-12-07T00:45:10;6.10;;;4.13;;
10311;SDS011;5201;48.776;9.128;2022-12-07T00:47:36;5.50;;;4.43;;
10311;SDS011;5201;48.776;9.128;2022-12-07T00:50:02;4.70;;;4.03;;
10311;SDS011;5201;48.776;9.128;2022-12-07T00:52:27;11.90;;;5.37;;
10311;SDS011;5201;48.776;9.128;2022-12-07T00:54:53;8.23;;;4.40;;
10311;SDS011;5201;48.776;9.128;2022-12-07T00:57:18;6.67;;;5.17;;
10311;SDS011;5201;48.776;9.128;2022-12-07T00:59:44;7.77;;;4.77;;
10311;SDS011;5201;48.776;9.128;2022-12-07T01:02:09;10.87;;;5.00;;
10311;SDS011;5201;48.776;9.128;2022-12-07T01:04:35;6.87;;;4.60;;
10311;SDS011;5201;48.776;9.128;2022-12-07T01:07:00;6.13;;;5.00;;
10311;SDS011;5201;48.776;9.128;2022-12-07T01:09:26;8.53;;;5.17;;
10311;SDS011;5201;48.776;9.128;2022-12-07T01:11:51;9.47;;;4.70;;
10311;SDS011;5201;48.776;9.128;2022-12-07T01:14:17;7.47;;;5.10;;
10311;SDS011;5201;48.776;9.128;2022-12-07T01:16:43;10.73;;;5.73;;
10311;SDS011;5201;48.776;9.128;2022-12-07T01:19:08;6.80;;;5.03;;
10311;SDS011;5201;48.776;9.128;2022-12-07T01:21:34;8.97;;;4.90;;
10311;SDS011;5201;48.776;9.128;2022-12-07T01:24:02;8.13;;;4.70;;
10311;SDS011;5201;48.776;9.128;2022-12-07T01:26:29;7.53;;;4.73;;
10311;SDS011;5201;48.776;9.128;2022-12-07T01:28:55;8.33;;;5.23;;
10311;SDS011;5201;48.776;9.128;2022-12-07T01:31:24;5.50;;;4.60;;
10311;SDS011;5201;48.776;9.128;2022-12-07T01:33:52;6.57;;;4.50;;
10311;SDS011;5201;48.776;9.128;2022-12-07T01:36:23;6.17;;;3.93;;
10311;SDS011;5201;48.776;9.128;2022-12-07T01:38:51;8.27;;;4.63;;
10311;SDS011;5201;48.776;9.128;2022-12-07T01:41:21;8.10;;;5.53;;
10311;SDS011;5201;48.776;9.128;2022-12-07T01:46:44;7.93;;;4.80;;
10311;SDS011;5201;48.776;9.128;2022-12-07T01:49:59;11.20;;;4.80;;
10311;SDS011;5201;48.776;9.128;2022-12-07T01:52:15;6.83;;;5.03;;
10311;SDS011;5201;48.776;9.128;2022-12-07T01:54:43;9.40;;;5.27;;
10311;SDS011;5201;48.776;9.128;2022-12-07T01:57:10;9.77;;;5.10;;
10311;SDS011;5201;48.776;9.128;2022-12-07T01:59:38;7.80;;;5.20;;
10311;SDS011;5201;48.776;9.128;2022-12-07T02:02:04;10.67;;;4.87;;
10311;SDS011;5201;48.776;9.128;2022-12-07T02:04:41;7.80;;;5.00;;
10311;SDS011;5201;48.776;9.128;2022-12-07T02:07:07;6.37;;;4.30;;
10311;SDS011;5201;48.776;9.128;2022-12-07T02:09:32;8.43;;;5.43;;
10311;SDS011;5201;48.776;9.128;2022-12-07T02:11:58;7.57;;;5.07;;
10311;SDS011;5201;48.776;9.128;2022-12-07T02:14:24;5.60;;;4.30;;
10311;SDS011;5201;48.776;9.128;2022-12-07T02:25:50;9.63;;;4.80;;
10311;SDS011;5201;48.776;9.128;2022-12-07T02:31:28;6.50;;;4.40;;
10311;SDS011;5201;48.776;9.128;2022-12-07T02:34:07;10.40;;;5.43;;
10311;SDS011;5201;48.776;9.128;2022-12-07T02:36:41;6.90;;;4.93;;
10311;SDS011;5201;48.776;9.128;2022-12-07T02:39:17;7.33;;;4.63;;
10311;SDS011;5201;48.776;9.128;2022-12-07T02:42:10;6.50;;;4.10;;
10311;SDS011;5201;48.776;9.128;2022-12-07T02:44:42;6.77;;;4.77;;
10311;SDS011;5201;48.776;9.128;2022-12-07T02:47:10;5.43;;;4.43;;
10311;SDS011;5201;48.776;9.128;2022-12-07T02:49:39;6.87;;;4.63;;
10311;SDS011;5201;48.776;9.128;2022-12-07T02:52:05;6.83;;;4.40;;
10311;SDS011;5201;48.776;9.128;2022-12-07T02:54:31;4.03;;;3.23;;
10311;SDS011;5201;48.776;9.128;2022-12-07T03:00:18;5.07;;;4.00;;
10311;SDS011;5201;48.776;9.128;2022-12-07T03:02:51;7.70;;;4.93;;
10311;SDS011;5201;48.776;9.128;2022-12-07T03:08:15;7.33;;;4.50;;
10311;SDS011;5201;48.776;9.128;2022-12-07T03:10:59;6.13;;;4.00;;
10311;SDS011;5201;48.776;9.128;2022-12-07T03:13:28;7.77;;;4.43;;
10311;SDS011;5201;48.776;9.128;2022-12-07T03:19:08;6.70;;;4.37;;
10311;SDS011;5201;48.776;9.128;2022-12-07T03:21:39;6.60;;;4.80;;
10311;SDS011;5201;48.776;9.128;2022-12-07T03:24:15;8.17;;;5.00;;
10311;SDS011;5201;48.776;9.128;2022-12-07T03:26:46;6.90;;;4.13;;
10311;SDS011;5201;48.776;9.128;2022-12-07T03:29:25;8.37;;;4.80;;
10311;SDS011;5201;48.776;9.128;2022-12-07T03:32:14;5.67;;;4.47;;
10311;SDS011;5201;48.776;9.128;2022-12-07T03:34:51;6.83;;;4.27;;
10311;SDS011;5201;48.776;9.128;2022-12-07T03:37:43;5.37;;;3.80;;
10311;SDS011;5201;48.776;9.128;2022-12-07T03:40:17;7.87;;;4.60;;
10311;SDS011;5201;48.776;9.128;2022-12-07T03:42:51;5.70;;;4.10;;
10311;SDS011;5201;48.776;9.128;2022-12-07T03:45:19;6.70;;;4.67;;
10311;SDS011;5201;48.776;9.128;2022-12-07T03:51:01;4.03;;;3.50;;
10311;SDS011;5201;48.776;9.128;2022-12-07T03:53:24;7.87;;;5.37;;
10311;SDS011;5201;48.776;9.128;2022-12-07T03:55:52;8.10;;;4.57;;
10311;SDS011;5201;48.776;9.128;2022-12-07T03:58:21;7.10;;;4.27;;
10311;SDS011;5201;48.776;9.128;2022-12-07T04:00:48;8.87;;;5.27;;
10311;SDS011;5201;48.776;9.128;2022-12-07T04:03:15;6.83;;;4.60;;
10311;SDS011;5201;48.776;9.128;2022-12-07T04:05:41;9.83;;;4.87;;
10311;SDS011;5201;48.776;9.128;2022-12-07T04:08:08;7.30;;;4.87;;
10311;SDS011;5201;48.776;9.128;2022-12-07T04:10:34;7.20;;;4.73;;
10311;SDS011;5201;48.776;9.128;2022-12-07T04:13:00;5.90;;;4.20;;
10311;SDS011;5201;48.776;9.128;2022-12-07T04:15:25;7.73;;;4.40;;
10311;SDS011;5201;48.776;9.128;2022-12-07T04:17:51;5.90;;;4.20;;
10311;SDS011;5201;48.776;9.128;2022-12-07T04:20:17;7.00;;;4.20;;
10311;SDS011;5201;48.776;9.128;2022-12-07T04:22:43;6.67;;;4.27;;
10311;SDS011;5201;48.776;9.128;2022-12-07T04:25:11;6.77;;;4.60;;
10311;SDS011;5201;48.776;9.128;2022-12-07T04:27:37;5.83;;;4.10;;
10311;SDS011;5201;48.776;9.128;2022-12-07T04:30:03;7.50;;;3.73;;
10311;SDS011;5201;48.776;9.128;2022-12-07T04:32:29;6.50;;;4.00;;
10311;SDS011;5201;48.776;9.128;2022-12-07T04:34:55;4.93;;;3.60;;
10311;SDS011;5201;48.776;9.128;2022-12-07T04:37:21;4.97;;;3.60;;
10311;SDS011;5201;48.776;9.128;2022-12-07T04:39:47;7.97;;;3.60;;
10311;SDS011;5201;48.776;9.128;2022-12-07T04:42:12;5.67;;;3.67;;
10311;SDS011;5201;48.776;9.128;2022-12-07T04:44:38;4.53;;;3.70;;
10311;SDS011;5201;48.776;9.128;2022-12-07T04:47:04;3.97;;;3.00;;
10311;SDS011;5201;48.776;9.128;2022-12-07T04:49:30;6.13;;;3.87;;
10311;SDS011;5201;48.776;9.128;2022-12-07T04:51:55;5.83;;;4.03;;
10311;SDS011;5201;48.776;9.128;2022-12-07T04:54:21;3.77;;;3.30;;
10311;SDS011;5201;48.776;9.128;2022-12-07T04:56:46;2.80;;;2.50;;
10311;SDS011;5201;48.776;9.128;2022-12-07T04:59:12;2.80;;;2.53;;
10311;SDS011;5201;48.776;9.128;2022-12-07T05:01:39;2.60;;;2.40;;
10311;SDS011;5201;48.776;9.128;2022-12-07T05:04:05;3.47;;;2.60;;
10311;SDS011;5201;48.776;9.128;2022-12-07T05:06:31;4.17;;;2.67;;
10311;SDS011;5201;48.776;9.128;2022-12-07T05:08:56;3.97;;;3.10;;
10311;SDS011;5201;48.776;9.128;2022-12-07T05:11:22;3.77;;;2.50;;
10311;SDS011;5201;48.776;9.128;2022-12-07T05:14:07;5.30;;;3.20;;
10311;SDS011;5201;48.776;9.128;2022-12-07T05:16:38;3.97;;;2.47;;
10311;SDS011;5201;48.776;9.128;2022-12-07T05:19:05;3.30;;;2.63;;
10311;SDS011;5201;48.776;9.128;2022-12-07T05:21:31;4.23;;;2.80;;
10311;SDS011;5201;48.776;9.128;2022-12-07T05:23:57;3.87;;;2.30;;
10311;SDS011;5201;48.776;9.128;2022-12-07T05:26:23;2.73;;;2.03;;
10311;SDS011;5201;48.776;9.128;2022-12-07T05:28:52;4.63;;;2.70;;
10311;SDS011;5201;48.776;9.128;2022-12-07T05:31:19;2.93;;;2.03;;
10311;SDS011;5201;48.776;9.128;2022-12-07T05:33:45;2.90;;;2.53;;
10311;SDS011;5201;48.776;9.128;2022-12-07T05:36:10;2.37;;;1.93;;
10311;SDS011;5201;48.776;9.128;2022-12-07T05:38:38;2.87;;;2.53;;
10311;SDS011;5201;48.776;9.128;2022-12-07T05:41:04;3.97;;;2.23;;
10311;SDS011;5201;48.776;9.128;2022-12-07T05:43:31;6.00;;;3.13;;
10311;SDS011;5201;48.776;9.128;2022-12-07T05:45:57;4.27;;;2.60;;
10311;SDS011;5201;48.776;9.128;2022-12-07T05:48:23;3.70;;;2.53;;
10311;SDS011;5201;48.776;9.128;2022-12-07T05:50:49;5.73;;;2.83;;
10311;SDS011;5201;48.776;9.128;2022-12-07T05:53:15;4.40;;;3.07;;
10311;SDS011;5201;48.776;9.128;2022-12-07T05:55:42;3.87;;;2.97;;
10311;SDS011;5201;48.776;9.128;2022-12-07T05:58:08;3.70;;;2.80;;
10311;SDS011;5201;48.776;9.128;2022-12-07T06:00:54;4.73;;;3.00;;
10311;SDS011;5201;48.776;9.128;2022-12-07T06:03:20;5.37;;;3.17;;
10311;SDS011;5201;48.776;9.128;2022-12-07T06:05:45;5.10;;;3.53;;
10311;SDS011;5201;48.776;9.128;2022-12-07T06:08:11;4.50;;;3.30;;
10311;SDS011;5201;48.776;9.128;2022-12-07T06:10:36;4.63;;;2.83;;
10311;SDS011;5201;48.776;9.128;2022-12-07T06:13:02;5.20;;;3.27;;
10311;SDS011;5201;48.776;9.128;2022-12-07T06:15:28;4.17;;;3.07;;
10311;SDS011;5201;48.776;9.128;2022-12-07T06:17:53;4.33;;;3.13;;
10311;SDS011;5201;48.776;9.128;2022-12-07T06:20:19;4.27;;;3.57;;
10311;SDS011;5201;48.776;9.128;2022-12-07T06:22:47;6.53;;;3.43;;
10311;SDS011;5201;48.776;9.128;2022-12-07T06:25:12;5.47;;;3.37;;
10311;SDS011;5201;48.776;9.128;2022-12-07T06:27:38;3.43;;;3.07;;
10311;SDS011;5201;48.776;9.128;2022-12-07T06:30:04;4.37;;;2.73;;
10311;SDS011;5201;48.776;9.128;2022-12-07T06:32:32;3.77;;;2.53;;
10311;SDS011;5201;48.776;9.128;2022-12-07T06:34:59;4.27;;;3.00;;
10311;SDS011;5201;48.776;9.128;2022-12-07T06:37:25;3.33;;;2.77;;
10311;SDS011;5201;48.776;9.128;2022-12-07T06:39:51;4.97;;;3.23;;
10311;SDS011;5201;48.776;9.128;2022-12-07T06:42:16;5.17;;;2.93;;
10311;SDS011;5201;48.776;9.128;2022-12-07T06:44:42;2.73;;;2.50;;
10311;SDS011;5201;48.776;9.128;2022-12-07T06:47:07;5.63;;;3.23;;
10311;SDS011;5201;48.776;9.128;2022-12-07T06:49:34;3.20;;;2.67;;
10311;SDS011;5201;48.776;9.128;2022-12-07T06:52:00;3.13;;;2.20;;
10311;SDS011;5201;48.776;9.128;2022-12-07T06:54:25;2.93;;;2.40;;
10311;SDS011;5201;48.776;9.128;2022-12-07T06:56:51;4.50;;;3.20;;
10311;SDS011;5201;48.776;9.128;2022-12-07T06:59:22;5.00;;;3.00;;
10311;SDS011;5201;48.776;9.128;2022-12-07T07:01:48;4.07;;;2.90;;
10311;SDS011;5201;48.776;9.128;2022-12-07T07:04:13;3.93;;;2.70;;
10311;SDS011;5201;48.776;9.128;2022-12-07T07:06:39;3.80;;;2.50;;
10311;SDS011;5201;48.776;9.128;2022-12-07T07:09:05;4.57;;;3.23;;
10311;SDS011;5201;48.776;9.128;2022-12-07T07:11:30;2.53;;;2.33;;
10311;SDS011;5201;48.776;9.128;2022-12-07T07:13:56;3.70;;;2.77;;
10311;SDS011;5201;48.776;9.128;2022-12-07T07:16:24;3.70;;;2.60;;
10311;SDS011;5201;48.776;9.128;2022-12-07T07:18:49;3.00;;;2.33;;
10311;SDS011;5201;48.776;9.128;2022-12-07T07:21:15;3.03;;;2.53;;
10311;SDS011;5201;48.776;9.128;2022-12-07T07:23:41;2.57;;;2.07;;
10311;SDS011;5201;48.776;9.128;2022-12-07T07:26:06;4.50;;;2.60;;
10311;SDS011;5201;48.776;9.128;2022-12-07T07:28:32;4.20;;;2.53;;
10311;SDS011;5201;48.776;9.128;2022-12-07T07:30:57;5.57;;;2.80;;
10311;SDS011;5201;48.776;9.128;2022-12-07T07:33:23;3.03;;;2.23;;
10311;SDS011;5201;48.776;9.128;2022-12-07T07:35:48;3.93;;;2.33;;
10311;SDS011;5201;48.776;9.128;2022-12-07T07:38:14;2.40;;;2.00;;
10311;SDS011;5201;48.776;9.128;2022-12-07T07:40:39;3.23;;;2.47;;
10311;SDS011;5201;48.776;9.128;2022-12-07T07:43:05;3.90;;;2.20;;
10311;SDS011;5201;48.776;9.128;2022-12-07T07:45:31;4.13;;;2.40;;
10311;SDS011;5201;48.776;9.128;2022-12-07T07:47:56;3.43;;;2.27;;
10311;SDS011;5201;48.776;9.128;2022-12-07T07:50:22;3.83;;;2.37;;
10311;SDS011;5201;48.776;9.128;2022-12-07T07:52:47;2.03;;;1.83;;
10311;SDS011;5201;48.776;9.128;2022-12-07T07:55:13;4.43;;;2.90;;
10311;SDS011;5201;48.776;9.128;2022-12-07T07:57:39;4.40;;;2.97;;
10311;SDS011;5201;48.776;9.128;2022-12-07T08:00:06;2.27;;;2.10;;
10311;SDS011;5201;48.776;9.128;2022-12-07T08:02:33;4.40;;;2.47;;
10311;SDS011;5201;48.776;9.128;2022-12-07T08:04:59;2.30;;;2.10;;
10311;SDS011;5201;48.776;9.128;2022-12-07T08:07:26;3.73;;;2.87;;
10311;SDS011;5201;48.776;9.128;2022-12-07T08:09:52;3.50;;;2.50;;
10311;SDS011;5201;48.776;9.128;2022-12-07T08:12:18;2.83;;;2.53;;
10311;SDS011;5201;48.776;9.128;2022-12-07T08:14:43;3.10;;;2.80;;
10311;SDS011;5201;48.776;9.128;2022-12-07T08:17:09;3.37;;;2.57;;
10311;SDS011;5201;48.776;9.128;2022-12-07T08:19:34;2.80;;;2.37;;
10311;SDS011;5201;48.776;9.128;2022-12-07T08:22:00;3.43;;;2.50;;
10311;SDS011;5201;48.776;9.128;2022-12-07T08:24:25;3.63;;;2.50;;
10311;SDS011;5201;48.776;9.128;2022-12-07T08:26:51;2.37;;;2.17;;
10311;SDS011;5201;48.776;9.128;2022-12-07T08:29:17;2.90;;;2.27;;
10311;SDS011;5201;48.776;9.128;2022-12-07T08:31:46;2.87;;;2.30;;
10311;SDS011;5201;48.776;9.128;2022-12-07T08:34:12;3.47;;;2.20;;
10311;SDS011;5201;48.776;9.128;2022-12-07T08:36:38;4.43;;;2.20;;
10311;SDS011;5201;48.776;9.128;2022-12-07T08:39:04;3.87;;;2.83;;
10311;SDS011;5201;48.776;9.128;2022-12-07T08:41:39;2.60;;;2.40;;
10311;SDS011;5201;48.776;9.128;2022-12-07T08:44:05;4.80;;;2.10;;
10311;SDS011;5201;48.776;9.128;2022-12-07T08:49:07;3.37;;;2.07;;
10311;SDS011;5201;48.776;9.128;2022-12-07T08:51:38;2.93;;;2.13;;
10311;SDS011;5201;48.776;9.128;2022-12-07T08:54:05;1.90;;;1.70;;
10311;SDS011;5201;48.776;9.128;2022-12-07T08:56:34;2.27;;;1.97;;
10311;SDS011;5201;48.776;9.128;2022-12-07T08:59:00;2.20;;;2.00;;
10311;SDS011;5201;48.776;9.128;2022-12-07T09:01:26;2.80;;;2.10;;
10311;SDS011;5201;48.776;9.128;2022-12-07T09:03:52;4.70;;;2.43;;
10311;SDS011;5201;48.776;9.128;2022-12-07T09:06:17;2.67;;;2.17;;
10311;SDS011;5201;48.776;9.128;2022-12-07T09:08:44;4.50;;;2.30;;
10311;SDS011;5201;48.776;9.128;2022-12-07T09:11:12;2.80;;;2.30;;
10311;SDS011;5201;48.776;9.128;2022-12-07T09:13:38;3.83;;;2.13;;
10311;SDS011;5201;48.776;9.128;2022-12-07T09:16:03;4.63;;;2.30;;
10311;SDS011;5201;48.776;9.128;2022-12-07T09:18:29;3.30;;;1.87;;
10311;SDS011;5201;48.776;9.128;2022-12-07T09:20:55;5.50;;;2.10;;
10311;SDS011;5201;48.776;9.128;2022-12-07T09:23:21;6.67;;;2.33;;
10311;SDS011;5201;48.776;9.128;2022-12-07T09:25:47;2.00;;;1.77;;
10311;SDS011;5201;48.776;9.128;2022-12-07T09:28:13;2.70;;;2.07;;
10311;SDS011;5201;48.776;9.128;2022-12-07T09:30:39;3.40;;;2.30;;
10311;SDS011;5201;48.776;9.128;2022-12-07T09:33:09;6.73;;;2.40;;
10311;SDS011;5201;48.776;9.128;2022-12-07T09:35:35;3.43;;;2.07;;
10311;SDS011;5201;48.776;9.128;2022-12-07T09:38:00;2.03;;;1.77;;
10311;SDS011;5201;48.776;9.128;2022-12-07T09:40:27;2.00;;;1.77;;
10311;SDS011;5201;48.776;9.128;2022-12-07T09:42:53;2.87;;;2.00;;
10311;SDS011;5201;48.776;9.128;2022-12-07T09:45:24;9.40;;;2.30;;
10311;SDS011;5201;48.776;9.128;2022-12-07T09:47:57;3.43;;;2.43;;
10311;SDS011;5201;48.776;9.128;2022-12-07T09:50:25;2.93;;;2.23;;
10311;SDS011;5201;48.776;9.128;2022-12-07T09:52:53;2.23;;;1.97;;
10311;SDS011;5201;48.776;9.128;2022-12-07T09:55:28;1.70;;;1.57;;
10311;SDS011;5201;48.776;9.128;2022-12-07T09:57:55;4.10;;;1.73;;
10311;SDS011;5201;48.776;9.128;2022-12-07T10:00:23;2.43;;;1.83;;
10311;SDS011;5201;48.776;9.128;2022-12-07T10:02:52;1.57;;;1.40;;
10311;SDS011;5201;48.776;9.128;2022-12-07T10:06:05;3.33;;;1.60;;
10311;SDS011;5201;48.776;9.128;2022-12-07T10:08:14;2.10;;;1.80;;
10311;SDS011;5201;48.776;9.128;2022-12-07T10:10:42;2.33;;;1.77;;
10311;SDS011;5201;48.776;9.128;2022-12-07T10:13:16;3.33;;;1.70;;
10311;SDS011;5201;48.776;9.128;2022-12-07T10:15:55;4.77;;;1.77;;
10311;SDS011;5201;48.776;9.128;2022-12-07T10:20:59;2.93;;;1.53;;
10311;SDS011;5201;48.776;9.128;2022-12-07T10:23:32;5.97;;;1.70;;
10311;SDS011;5201;48.776;9.128;2022-12-07T10:25:58;4.93;;;1.60;;
10311;SDS011;5201;48.776;9.128;2022-12-07T10:28:27;2.33;;;1.73;;
10311;SDS011;5201;48.776;9.128;2022-12-07T10:31:01;1.97;;;1.50;;
10311;SDS011;5201;48.776;9.128;2022-12-07T10:33:57;2.80;;;1.30;;
10311;SDS011;5201;48.776;9.128;2022-12-07T10:36:25;3.20;;;2.40;;
10311;SDS011;5201;48.776;9.128;2022-12-07T10:39:13;1.83;;;1.70;;
10311;SDS011;5201;48.776;9.128;2022-12-07T10:41:56;5.60;;;1.70;;
10311;SDS011;5201;48.776;9.128;2022-12-07T10:44:25;2.00;;;1.50;;
10311;SDS011;5201;48.776;9.128;2022-12-07T10:47:11;2.07;;;1.37;;
10311;SDS011;5201;48.776;9.128;2022-12-07T11:04:03;3.07;;;2.03;;
10311;SDS011;5201;48.776;9.128;2022-12-07T11:09:25;3.47;;;1.57;;
10311;SDS011;5201;48.776;9.128;2022-12-07T11:12:07;2.27;;;1.50;;
10311;SDS011;5201;48.776;9.128;2022-12-07T11:14:40;2.00;;;1.80;;
10311;SDS011;5201;48.776;9.128;2022-12-07T11:20:17;2.13;;;1.50;;
10311;SDS011;5201;48.776;9.128;2022-12-07T11:32:02;3.17;;;1.50;;
10311;SDS011;5201;48.776;9.128;2022-12-07T11:37:40;3.00;;;1.37;;
10311;SDS011;5201;48.776;9.128;2022-12-07T11:43:01;1.17;;;1.07;;
10311;SDS011;5201;48.776;9.128;2022-12-07T11:45:35;1.10;;;1.00;;
10311;SDS011;5201;48.776;9.128;2022-12-07T11:50:37;1.17;;;1.07;;
10311;SDS011;5201;48.776;9.128;2022-12-07T11:53:26;1.40;;;1.27;;
10311;SDS011;5201;48.776;9.128;2022-12-07T11:56:09;1.33;;;1.23;;
10311;SDS011;5201;48.776;9.128;2022-12-07T12:01:24;1.57;;;1.03;;
10311;SDS011;5201;48.776;9.128;2022-12-07T12:06:44;1.90;;;1.53;;
10311;SDS011;5201;48.776;9.128;2022-12-07T12:09:21;2.60;;;1.90;;
10311;SDS011;5201;48.776;9.128;2022-12-07T12:14:59;1.90;;;1.53;;
10311;SDS011;5201;48.776;9.128;2022-12-07T12:23:07;2.13;;;1.93;;
10311;SDS011;5201;48.776;9.128;2022-12-07T12:25:39;4.20;;;2.30;;
10311;SDS011;5201;48.776;9.128;2022-12-07T12:28:05;3.13;;;2.17;;
10311;SDS011;5201;48.776;9.128;2022-12-07T12:30:43;3.30;;;2.27;;
10311;SDS011;5201;48.776;9.128;2022-12-07T12:33:13;5.13;;;2.70;;
10311;SDS011;5201;48.776;9.128;2022-12-07T12:35:44;3.33;;;2.30;;
10311;SDS011;5201;48.776;9.128;2022-12-07T12:39:07;2.80;;;2.60;;
10311;SDS011;5201;48.776;9.128;2022-12-07T12:41:24;3.97;;;2.20;;
10311;SDS011;5201;48.776;9.128;2022-12-07T12:44:38;4.07;;;2.40;;
10311;SDS011;5201;48.776;9.128;2022-12-07T12:46:59;3.03;;;1.97;;
10311;SDS011;5201;48.776;9.128;2022-12-07T12:52:00;2.40;;;2.20;;
10311;SDS011;5201;48.776;9.128;2022-12-07T12:55:11;3.03;;;2.10;;
10311;SDS011;5201;48.776;9.128;2022-12-07T12:57:39;2.10;;;1.90;;
10311;SDS011;5201;48.776;9.128;2022-12-07T13:00:18;4.00;;;2.10;;
10311;SDS011;5201;48.776;9.128;2022-12-07T13:31:35;2.47;;;2.00;;
10311;SDS011;5201;48.776;9.128;2022-12-07T13:36:57;2.23;;;1.67;;
10311;SDS011;5201;48.776;9.128;2022-12-07T13:39:32;3.63;;;1.90;;
10311;SDS011;5201;48.776;9.128;2022-12-07T13:41:59;1.53;;;1.43;;
10311;SDS011;5201;48.776;9.128;2022-12-07T13:44:48;1.97;;;1.77;;
10311;SDS011;5201;48.776;9.128;2022-12-07T13:49:47;1.90;;;1.50;;
10311;SDS011;5201;48.776;9.128;2022-12-07T13:52:18;2.73;;;2.03;;
10311;SDS011;5201;48.776;9.128;2022-12-07T13:54:48;3.60;;;1.97;;
10311;SDS011;5201;48.776;9.128;2022-12-07T13:57:19;3.10;;;2.10;;
10311;SDS011;5201;48.776;9.128;2022-12-07T13:59:45;2.73;;;2.37;;
10311;SDS011;5201;48.776;9.128;2022-12-07T14:02:22;2.00;;;1.90;;
10311;SDS011;5201;48.776;9.128;2022-12-07T14:10:30;2.60;;;1.70;;
10311;SDS011;5201;48.776;9.128;2022-12-07T14:13:26;1.93;;;1.63;;
10311;SDS011;5201;48.776;9.128;2022-12-07T14:16:05;2.87;;;1.63;;
10311;SDS011;5201;48.776;9.128;2022-12-07T14:18:46;1.70;;;1.60;;
10311;SDS011;5201;48.776;9.128;2022-12-07T14:24:09;1.80;;;1.70;;
10311;SDS011;5201;48.776;9.128;2022-12-07T14:26:35;4.43;;;1.97;;
10311;SDS011;5201;48.776;9.128;2022-12-07T14:31:50;2.10;;;1.60;;
10311;SDS011;5201;48.776;9.128;2022-12-07T14:34:19;1.90;;;1.80;;
10311;SDS011;5201;48.776;9.128;2022-12-07T14:36:45;2.80;;;2.50;;
10311;SDS011;5201;48.776;9.128;2022-12-07T14:39:11;2.70;;;2.03;;
10311;SDS011;5201;48.776;9.128;2022-12-07T14:41:36;3.13;;;1.97;;
10311;SDS011;5201;48.776;9.128;2022-12-07T14:44:18;6.03;;;2.40;;
10311;SDS011;5201;48.776;9.128;2022-12-07T14:46:45;4.10;;;1.83;;
10311;SDS011;5201;48.776;9.128;2022-12-07T14:49:12;3.40;;;2.40;;
10311;SDS011;5201;48.776;9.128;2022-12-07T14:51:38;2.10;;;1.63;;
10311;SDS011;5201;48.776;9.128;2022-12-07T14:54:05;3.00;;;2.27;;
10311;SDS011;5201;48.776;9.128;2022-12-07T14:56:37;4.00;;;2.47;;
10311;SDS011;5201;48.776;9.128;2022-12-07T14:59:02;2.57;;;1.83;;
10311;SDS011;5201;48.776;9.128;2022-12-07T15:01:28;2.80;;;2.33;;
10311;SDS011;5201;48.776;9.128;2022-12-07T15:03:56;3.30;;;2.93;;
10311;SDS011;5201;48.776;9.128;2022-12-07T15:06:22;4.00;;;2.47;;
10311;SDS011;5201;48.776;9.128;2022-12-07T15:08:47;3.00;;;2.17;;
10311;SDS011;5201;48.776;9.128;2022-12-07T15:11:13;2.73;;;2.50;;
10311;SDS011;5201;48.776;9.128;2022-12-07T15:13:40;3.83;;;2.30;;
10311;SDS011;5201;48.776;9.128;2022-12-07T15:16:24;6.43;;;2.53;;
10311;SDS011;5201;48.776;9.128;2022-12-07T15:18:50;2.67;;;2.10;;
10311;SDS011;5201;48.776;9.128;2022-12-07T15:21:16;4.67;;;2.80;;
10311;SDS011;5201;48.776;9.128;2022-12-07T15:23:42;3.10;;;2.33;;
10311;SDS011;5201;48.776;9.128;2022-12-07T15:26:09;2.40;;;2.17;;
10311;SDS011;5201;48.776;9.128;2022-12-07T15:28:35;3.13;;;2.03;;
10311;SDS011;5201;48.776;9.128;2022-12-07T15:31:01;3.73;;;2.33;;
10311;SDS011;5201;48.776;9.128;2022-12-07T15:33:26;2.90;;;2.50;;
10311;SDS011;5201;48.776;9.128;2022-12-07T15:35:52;4.20;;;2.60;;
10311;SDS011;5201;48.776;9.128;2022-12-07T15:38:18;3.10;;;2.10;;
10311;SDS011;5201;48.776;9.128;2022-12-07T15:40:46;3.13;;;2.40;;
10311;SDS011;5201;48.776;9.128;2022-12-07T15:43:12;4.83;;;2.20;;
10311;SDS011;5201;48.776;9.128;2022-12-07T15:45:56;4.93;;;2.40;;
10311;SDS011;5201;48.776;9.128;2022-12-07T15:48:22;6.37;;;2.53;;
10311;SDS011;5201;48.776;9.128;2022-12-07T15:50:47;4.10;;;2.77;;
10311;SDS011;5201;48.776;9.128;2022-12-07T15:53:13;3.93;;;2.67;;
10311;SDS011;5201;48.776;9.128;2022-12-07T15:55:39;3.40;;;2.90;;
10311;SDS011;5201;48.776;9.128;2022-12-07T15:58:05;4.83;;;3.17;;
10311;SDS011;5201;48.776;9.128;2022-12-07T16:00:31;4.13;;;3.27;;
10311;SDS011;5201;48.776;9.128;2022-12-07T16:02:57;4.90;;;2.87;;
10311;SDS011;5201;48.776;9.128;2022-12-07T16:05:22;5.33;;;3.20;;
10311;SDS011;5201;48.776;9.128;2022-12-07T16:07:48;5.60;;;3.03;;
10311;SDS011;5201;48.776;9.128;2022-12-07T16:10:14;4.67;;;4.00;;
10311;SDS011;5201;48.776;9.128;2022-12-07T16:12:39;5.60;;;3.70;;
10311;SDS011;5201;48.776;9.128;2022-12-07T16:15:08;7.27;;;3.63;;
10311;SDS011;5201;48.776;9.128;2022-12-07T16:17:34;6.40;;;4.00;;
10311;SDS011;5201;48.776;9.128;2022-12-07T16:19:59;7.30;;;3.80;;
10311;SDS011;5201;48.776;9.128;2022-12-07T16:22:25;5.53;;;3.67;;
10311;SDS011;5201;48.776;9.128;2022-12-07T16:24:50;6.97;;;3.80;;
10311;SDS011;5201;48.776;9.128;2022-12-07T16:27:16;5.23;;;3.53;;
10311;SDS011;5201;48.776;9.128;2022-12-07T16:29:42;4.60;;;3.60;;
10311;SDS011;5201;48.776;9.128;2022-12-07T16:32:07;6.37;;;4.03;;
10311;SDS011;5201;48.776;9.128;2022-12-07T16:34:33;7.60;;;4.20;;
10311;SDS011;5201;48.776;9.128;2022-12-07T16:36:58;5.77;;;3.90;;
10311;SDS011;5201;48.776;9.128;2022-12-07T16:39:24;9.27;;;5.10;;
10311;SDS011;5201;48.776;9.128;2022-12-07T16:41:50;6.10;;;4.07;;
10311;SDS011;5201;48.776;9.128;2022-12-07T16:44:17;7.37;;;4.73;;
10311;SDS011;5201;48.776;9.128;2022-12-07T16:46:43;7.87;;;3.90;;
10311;SDS011;5201;48.776;9.128;2022-12-07T16:49:15;7.03;;;4.33;;
10311;SDS011;5201;48.776;9.128;2022-12-07T16:51:41;5.13;;;3.87;;
10311;SDS011;5201;48.776;9.128;2022-12-07T16:54:11;9.20;;;4.90;;
10311;SDS011;5201;48.776;9.128;2022-12-07T16:56:37;7.70;;;4.53;;
10311;SDS011;5201;48.776;9.128;2022-12-07T16:59:03;9.43;;;4.87;;
10311;SDS011;5201;48.776;9.128;2022-12-07T17:01:29;5.73;;;4.13;;
10311;SDS011;5201;48.776;9.128;2022-12-07T17:03:56;9.73;;;4.53;;
10311;SDS011;5201;48.776;9.128;2022-12-07T17:06:23;6.67;;;4.13;;
10311;SDS011;5201;48.776;9.128;2022-12-07T17:08:51;6.73;;;4.27;;
10311;SDS011;5201;48.776;9.128;2022-12-07T17:11:18;8.00;;;4.40;;
10311;SDS011;5201;48.776;9.128;2022-12-07T17:13:45;5.87;;;3.43;;
10311;SDS011;5201;48.776;9.128;2022-12-07T17:16:30;5.77;;;3.90;;
10311;SDS011;5201;48.776;9.128;2022-12-07T17:18:59;7.63;;;4.50;;
10311;SDS011;5201;48.776;9.128;2022-12-07T17:21:30;6.83;;;4.27;;
10311;SDS011;5201;48.776;9.128;2022-12-07T17:23:57;7.00;;;4.30;;